Etusivu
METAR-TAF:

METAR-TAF

Lentoasemat :

Xi’an, Kiina

Xi’an Xianyangin kansainvälinen lentoasema

Leveyspiiri: 34-26N, Pituuspiiri: 108-45E, korkeus merenpinnasta: 479 m

Tämänhetkinen sää

Tämä raportti tehtiin 33 minuuttia sitten, kello 04.00 UTC
Tuuli 8 kn idästä/koillisesta puuskistuen 19 kn:hen, vaihdellen pohjoisen ja idän/kaakon välillä
Lämpötila 35°C
Kosteus 53%
Ilmanpaine 1004 hPa
Näkyvyys 10 km tai enemmän
ei pilviä alle 1500 m:ssä eikä cumulonimbus-pilviä

METAR: ZLXY 270400Z 07004G10MPS 010V120 CAVOK 35/24 Q1004 NOSIG

Aika: 12:33 (04:33 UTC)

Sääennuste

Tämä raportti tehtiin 9 tuntia ja 11 minuuttia sitten, kello 19.22 UTC
Ennuste voimassa 27. päivästä klo 00 UTC - 27. päivään klo 24 UTC
Tuuli 8 kn idästä/koillisesta
Näkyvyys: 6000 m

TAF: ZLXY 261922Z 2700/2724 06004MPS 6000 NSC TX40/2707Z TN28/2720Z

Säähavainnot ja -ennusteet yli 4000 lentoasemalta (METAR- ja TAF-raportit).

Käytössä olevat sääasemat on merkitty karttaan keltaisilla ja punaisilla pisteillä.

Aseta hiiri pisteen päälle nähdäksesi sääaseman nimen.

Klikkaa sitten nähdäksesi säähavainnot ja -ennusteet.

Kartan vaihtaminen: klikkaa mustalla rastilla varustettuja vihreitä pisteitä, niin voit zoomata sisään; viivalla varustettua vihreää pistettä, niin voit zoomata ulos tai vihreitä nuolia, niin pääset viereisille kartoille.


METAR-TAF: